Time;durP1;ratioP1;P1;durP2;ratioP2;P2;SDS_P1;SDS_P2;PMS_P1;PMS_P2;Temp;Humidity;BMP_temperature;BMP_pressure;BME280_temperature;BME280_humidity;BME280_pressure;Samples;Min_cycle;Max_cycle;Signal;HPM_P1;HPM_P2
2021/08/19 00:05:13;;;;;;;4.85;3.35;;;;;;;;;;20829390;28;20528;-67
2021/08/19 00:15:15;;;;;;;7.50;3.13;;;;;;;;;;20828997;28;20053;-67
2021/08/19 00:25:17;;;;;;;7.85;2.95;;;;;;;;;;20828490;28;20057;-66
2021/08/19 00:35:22;;;;;;;7.50;3.20;;;;;;;;;;20827717;28;20053;-68
2021/08/19 00:45:26;;;;;;;4.38;2.63;;;;;;;;;;20827239;28;20053;-66
2021/08/19 00:55:28;;;;;;;5.80;3.20;;;;;;;;;;20826967;28;20573;-67
2021/08/19 01:05:31;;;;;;;4.85;3.33;;;;;;;;;;20824986;28;20049;-67
2021/08/19 01:15:34;;;;;;;6.70;3.38;;;;;;;;;;20825298;28;20081;-67
2021/08/19 01:25:39;;;;;;;6.07;3.35;;;;;;;;;;20824556;28;20444;-66
2021/08/19 01:35:44;;;;;;;5.97;3.28;;;;;;;;;;20824053;28;20175;-67
2021/08/19 01:45:53;;;;;;;8.32;3.58;;;;;;;;;;20823155;28;20080;-67
2021/08/19 01:56:05;;;;;;;5.32;3.10;;;;;;;;;;20822271;28;20049;-66
2021/08/19 02:06:17;;;;;;;5.45;3.58;;;;;;;;;;20805729;28;20138;-66
2021/08/19 02:16:22;;;;;;;8.18;3.83;;;;;;;;;;20821104;28;20046;-66
2021/08/19 02:26:24;;;;;;;11.10;4.35;;;;;;;;;;20824119;28;20058;-66
2021/08/19 02:36:28;;;;;;;13.82;5.15;;;;;;;;;;20821716;28;20046;-66
2021/08/19 02:46:31;;;;;;;9.35;5.05;;;;;;;;;;20819905;28;20508;-66
2021/08/19 02:56:41;;;;;;;7.78;4.20;;;;;;;;;;20819278;28;20049;-67
2021/08/19 03:06:43;;;;;;;10.52;4.50;;;;;;;;;;20817981;28;20057;-67
2021/08/19 03:16:48;;;;;;;9.68;3.90;;;;;;;;;;20817689;28;20494;-67
2021/08/19 03:26:56;;;;;;;10.15;4.10;;;;;;;;;;20819192;28;20094;-67
2021/08/19 03:36:59;;;;;;;7.38;3.75;;;;;;;;;;20831347;28;20056;-67
2021/08/19 03:47:04;;;;;;;5.97;3.60;;;;;;;;;;20830722;28;20057;-67
2021/08/19 03:57:07;;;;;;;7.10;3.85;;;;;;;;;;20833693;28;20053;-67
2021/08/19 04:07:13;;;;;;;7.45;3.60;;;;;;;;;;20813248;28;20057;-66
2021/08/19 04:17:18;;;;;;;7.10;3.70;;;;;;;;;;20828844;28;20041;-67
2021/08/19 04:27:21;;;;;;;4.90;4.13;;;;;;;;;;20828336;28;20126;-67
2021/08/19 04:37:23;;;;;;;5.90;4.10;;;;;;;;;;20826961;28;20463;-67
2021/08/19 04:47:27;;;;;;;10.13;4.20;;;;;;;;;;20826951;28;20102;-68
2021/08/19 04:57:29;;;;;;;5.85;3.92;;;;;;;;;;20826030;28;20052;-68
2021/08/19 05:07:32;;;;;;;8.07;4.50;;;;;;;;;;20825783;28;20553;-67
2021/08/19 05:17:34;;;;;;;12.18;5.15;;;;;;;;;;20825078;28;20049;-66
2021/08/19 05:27:37;;;;;;;9.23;5.10;;;;;;;;;;20825493;28;20049;-67
2021/08/19 05:37:39;;;;;;;10.35;5.13;;;;;;;;;;20824205;28;20102;-66
2021/08/19 05:47:43;;;;;;;10.65;4.95;;;;;;;;;;20823206;28;20093;-67
2021/08/19 05:57:51;;;;;;;11.48;5.05;;;;;;;;;;20822074;28;20121;-66
2021/08/19 06:07:53;;;;;;;13.27;7.30;;;;;;;;;;20821000;28;20063;-67
2021/08/19 06:17:56;;;;;;;11.10;5.88;;;;;;;;;;20803701;28;20062;-66
2021/08/19 06:27:58;;;;;;;;;;;;;;;;;;20821013;28;20056;-67
2021/08/19 06:38:03;;;;;;;13.80;7.20;;;;;;;;;;20820335;28;20333;-67
2021/08/19 06:48:05;;;;;;;12.73;6.22;;;;;;;;;;20818858;28;20141;-67
2021/08/19 06:58:08;;;;;;;11.70;5.82;;;;;;;;;;20819673;28;20049;-68
2021/08/19 07:08:11;;;;;;;11.80;6.05;;;;;;;;;;20818966;28;20118;-68
2021/08/19 07:18:13;;;;;;;15.25;6.53;;;;;;;;;;20818015;28;20053;-67
2021/08/19 07:28:17;;;;;;;17.40;6.80;;;;;;;;;;20817104;28;20485;-67
2021/08/19 07:38:20;;;;;;;17.13;6.40;;;;;;;;;;20816940;28;20049;-68
2021/08/19 07:48:23;;;;;;;12.65;6.07;;;;;;;;;;20816840;28;20486;-68
2021/08/19 07:58:26;;;;;;;13.73;6.22;;;;;;;;;;20815501;28;20557;-66
2021/08/19 08:08:29;;;;;;;12.50;6.25;;;;;;;;;;20814209;28;20061;-66
2021/08/19 08:18:32;;;;;;;14.43;6.35;;;;;;;;;;20805845;28;20061;-66
2021/08/19 08:28:36;;;;;;;1232.60;251.23;;;;;;;;;;20810648;28;20082;-68
2021/08/19 08:38:39;;;;;;;17.00;6.32;;;;;;;;;;20809943;28;20128;-66
2021/08/19 08:48:43;;;;;;;20.75;8.05;;;;;;;;;;20826614;28;20056;-68
2021/08/19 08:58:45;;;;;;;14.75;6.38;;;;;;;;;;20826478;28;20049;-66
2021/08/19 09:08:52;;;;;;;11.70;5.65;;;;;;;;;;20825421;28;20057;-68
2021/08/19 09:19:08;;;;;;;11.40;5.40;;;;;;;;;;20825159;28;20045;-67
2021/08/19 09:29:31;;;;;;;12.88;5.97;;;;;;;;;;20824372;28;20456;-68
2021/08/19 09:39:35;;;;;;;10.25;5.90;;;;;;;;;;20823624;28;20053;-68
2021/08/19 09:49:39;;;;;;;15.73;5.65;;;;;;;;;;20805993;28;20110;-67
2021/08/19 09:59:41;;;;;;;10.48;5.68;;;;;;;;;;20822160;28;20127;-67
2021/08/19 10:09:44;;;;;;;12.70;4.90;;;;;;;;;;20820840;28;20054;-57
2021/08/19 10:19:49;;;;;;;10.30;5.38;;;;;;;;;;20845534;28;20478;-58
2021/08/19 10:29:53;;;;;;;14.65;5.78;;;;;;;;;;20819288;28;20061;-59
2021/08/19 10:39:56;;;;;;;17.25;6.32;;;;;;;;;;20818424;28;20094;-58
2021/08/19 10:50:19;;;;;;;14.48;6.72;;;;;;;;;;20885588;28;20057;-61
2021/08/19 11:00:38;;;;;;;11.20;5.65;;;;;;;;;;20818263;28;20041;-57
2021/08/19 11:10:40;;;;;;;7.68;5.03;;;;;;;;;;20817353;28;20057;-60
2021/08/19 11:20:47;;;;;;;10.18;5.25;;;;;;;;;;20817355;28;20049;-66
2021/08/19 11:30:50;;;;;;;9.95;4.97;;;;;;;;;;20817389;28;20509;-67
2021/08/19 11:40:55;;;;;;;11.75;5.30;;;;;;;;;;20816905;28;20140;-69
2021/08/19 11:50:59;;;;;;;10.75;5.25;;;;;;;;;;20823229;28;20542;-67
2021/08/19 12:01:05;;;;;;;8.60;4.80;;;;;;;;;;20829601;28;20051;-67
2021/08/19 12:11:08;;;;;;;8.85;5.28;;;;;;;;;;20828693;28;20064;-65
2021/08/19 12:21:13;;;;;;;8.20;4.45;;;;;;;;;;20828897;28;20474;-66
2021/08/19 12:31:18;;;;;;;10.25;6.78;;;;;;;;;;20828090;28;20092;-66
2021/08/19 12:41:21;;;;;;;9.30;5.57;;;;;;;;;;20827610;28;20085;-66
2021/08/19 12:51:26;;;;;;;7.72;3.40;;;;;;;;;;20826543;28;20363;-66
2021/08/19 13:01:29;;;;;;;5.97;3.88;;;;;;;;;;20893918;28;20124;-66
2021/08/19 13:11:31;;;;;;;9.02;5.03;;;;;;;;;;20825656;28;20057;-66
2021/08/19 13:21:34;;;;;;;11.98;7.00;;;;;;;;;;20824536;28;20053;-66
2021/08/19 13:31:37;;;;;;;5.28;3.45;;;;;;;;;;20824816;28;20049;-65
2021/08/19 13:41:39;;;;;;;49.17;7.57;;;;;;;;;;20823397;28;20045;-67
2021/08/19 13:51:43;;;;;;;8.10;4.43;;;;;;;;;;20822985;27;20073;-65
2021/08/19 14:01:45;;;;;;;7.70;4.72;;;;;;;;;;20822263;28;20057;-66
2021/08/19 14:11:47;;;;;;;7.13;4.03;;;;;;;;;;20821581;28;20057;-66
2021/08/19 14:21:50;;;;;;;6.32;3.92;;;;;;;;;;20888756;28;20052;-66
2021/08/19 14:31:52;;;;;;;5.97;3.88;;;;;;;;;;20887167;28;20144;-66
2021/08/19 14:41:55;;;;;;;8.05;4.38;;;;;;;;;;20887298;28;20077;-66
2021/08/19 14:51:57;;;;;;;5.60;3.70;;;;;;;;;;20819134;28;20474;-66
2021/08/19 15:01:59;;;;;;;5.00;3.85;;;;;;;;;;20818418;28;20045;-67
2021/08/19 15:12:05;;;;;;;6.97;3.65;;;;;;;;;;20817719;28;20106;-66
2021/08/19 15:22:10;;;;;;;5.85;3.78;;;;;;;;;;20819124;28;20048;-66
2021/08/19 15:32:13;;;;;;;5.68;3.83;;;;;;;;;;20831052;28;20050;-67
2021/08/19 15:42:19;;;;;;;5.03;3.60;;;;;;;;;;20897812;28;20046;-66
2021/08/19 15:52:23;;;;;;;7.30;3.72;;;;;;;;;;20830340;28;20053;-67
2021/08/19 16:02:25;;;;;;;6.53;3.80;;;;;;;;;;20897131;28;20416;-66
2021/08/19 16:12:28;;;;;;;7.07;4.22;;;;;;;;;;20828552;28;20098;-66
2021/08/19 16:22:30;;;;;;;6.72;4.68;;;;;;;;;;20828402;28;20455;-66
2021/08/19 16:32:33;;;;;;;7.63;5.45;;;;;;;;;;20827116;28;20064;-66
2021/08/19 16:42:36;;;;;;;5.00;4.45;;;;;;;;;;20826584;28;20045;-67
2021/08/19 16:52:38;;;;;;;5.72;4.85;;;;;;;;;;20826882;28;20114;-66
2021/08/19 17:02:40;;;;;;;6.55;4.05;;;;;;;;;;20825966;28;20124;-67
2021/08/19 17:12:43;;;;;;;5.68;4.13;;;;;;;;;;20825275;28;20057;-66
2021/08/19 17:22:45;;;;;;;7.82;5.35;;;;;;;;;;20824134;28;20166;-65
2021/08/19 17:32:48;;;;;;;6.50;4.20;;;;;;;;;;20823732;28;20053;-64
2021/08/19 17:42:50;;;;;;;5.60;3.97;;;;;;;;;;20822601;28;20133;-64
2021/08/19 17:52:53;;;;;;;5.20;3.92;;;;;;;;;;20888372;28;20058;-64
2021/08/19 18:02:55;;;;;;;8.15;5.55;;;;;;;;;;20821834;28;20118;-65
2021/08/19 18:12:57;;;;;;;6.75;4.30;;;;;;;;;;20821687;28;20122;-64
2021/08/19 18:23:00;;;;;;;6.25;4.78;;;;;;;;;;20888498;28;20106;-64
2021/08/19 18:33:02;;;;;;;8.93;4.15;;;;;;;;;;20820065;28;20159;-65
2021/08/19 18:43:04;;;;;;;6.47;4.93;;;;;;;;;;20819906;28;20045;-65
2021/08/19 18:53:06;;;;;;;6.65;5.28;;;;;;;;;;20818985;28;20049;-63
2021/08/19 19:03:08;;;;;;;8.48;5.85;;;;;;;;;;20885620;28;20049;-63
2021/08/19 19:13:10;;;;;;;10.55;5.20;;;;;;;;;;20820231;28;20065;-66
2021/08/19 19:23:14;;;;;;;11.20;5.75;;;;;;;;;;20818457;28;20057;-64
2021/08/19 19:33:16;;;;;;;6.97;6.10;;;;;;;;;;20816865;28;20052;-65
2021/08/19 19:43:18;;;;;;;9.93;6.30;;;;;;;;;;20815939;28;20073;-64
2021/08/19 19:53:21;;;;;;;9.38;6.38;;;;;;;;;;20815906;28;20056;-65
2021/08/19 20:03:23;;;;;;;8.95;6.78;;;;;;;;;;20815070;28;20524;-65
2021/08/19 20:13:25;;;;;;;10.20;7.82;;;;;;;;;;20890666;28;20421;-65
2021/08/19 20:23:27;;;;;;;11.18;7.15;;;;;;;;;;20828816;28;20053;-66
2021/08/19 20:33:29;;;;;;;12.40;6.63;;;;;;;;;;20828032;28;20049;-65
2021/08/19 20:43:31;;;;;;;8.90;7.50;;;;;;;;;;20827282;28;20064;-66
2021/08/19 20:53:34;;;;;;;10.30;6.88;;;;;;;;;;20894778;28;20141;-65
2021/08/19 21:03:36;;;;;;;11.05;8.23;;;;;;;;;;20826321;28;20053;-65
2021/08/19 21:13:40;;;;;;;8.25;7.32;;;;;;;;;;20825358;28;20064;-64
2021/08/19 21:23:42;;;;;;;12.13;9.32;;;;;;;;;;20824443;28;20049;-64
2021/08/19 21:33:44;;;;;;;11.05;7.03;;;;;;;;;;20824640;28;20498;-64
2021/08/19 21:43:47;;;;;;;11.15;8.35;;;;;;;;;;20824476;28;20060;-64
2021/08/19 21:53:49;;;;;;;15.82;8.43;;;;;;;;;;20823573;28;20493;-64
2021/08/19 22:03:51;;;;;;;10.68;8.52;;;;;;;;;;20822726;27;20405;-64
2021/08/19 22:13:53;;;;;;;12.63;8.25;;;;;;;;;;20822054;28;20075;-63
2021/08/19 22:23:57;;;;;;;8.98;6.65;;;;;;;;;;20821014;28;20048;-63
2021/08/19 22:33:59;;;;;;;9.40;5.95;;;;;;;;;;20887503;28;20053;-64
2021/08/19 22:44:01;;;;;;;13.50;10.43;;;;;;;;;;20819648;28;20077;-65
2021/08/19 22:54:03;;;;;;;8.23;5.80;;;;;;;;;;20819996;28;20409;-65
2021/08/19 23:04:05;;;;;;;7.65;5.85;;;;;;;;;;20819361;28;20050;-64
2021/08/19 23:14:08;;;;;;;9.63;4.07;;;;;;;;;;20818591;28;20092;-64
2021/08/19 23:24:09;;;;;;;5.47;3.40;;;;;;;;;;20818247;28;20451;-64
2021/08/19 23:34:11;;;;;;;7.03;3.17;;;;;;;;;;20817528;28;20049;-64
2021/08/19 23:44:13;;;;;;;5.32;2.90;;;;;;;;;;20820631;28;20052;-65
2021/08/19 23:54:15;;;;;;;6.15;3.20;;;;;;;;;;20898725;28;20060;-65
